Jaborandi, Brazil
Current Conditions -  °F | °C
As of 12:00 PM on Tuesday 21 Oct 2014 (Local Time) from SBMK Reporting Station
Few Clouds Few Clouds  
Wind Chill: 73°   Ceiling: Unl
Heat Index: 73°   Visibility: 6mi
Dew Point: 66°   Wind: 3mph
Humidity: 78%   Direction: 200°SSW
Pressure: 30.06"   Gusts: NA
Location:  13.62°S, 44.43°W
Report Text: SBMK 211500Z 20003KT 170V230 9999 FEW048 23/19 Q1018
Loading
Personal Weather Stations






























Interactive Weather Map
Tropical Storm Tracking
New forecast layout! Learn more

10-Day Weather Forecast

Advertisements
Track Severe Weather on mobile